createdAt,value
2022-08-17T00:03:46.695Z,98.60
2022-08-17T00:06:23.643Z,98.70
2022-08-17T00:08:58.199Z,99.00
2022-08-17T00:11:35.285Z,99.30
2022-08-17T00:14:11.136Z,99.40
2022-08-17T00:16:55.598Z,99.20
2022-08-17T00:19:29.427Z,99.30
2022-08-17T00:22:31.324Z,99.40
2022-08-17T00:24:53.244Z,99.60
2022-08-17T00:27:23.773Z,99.60
2022-08-17T00:29:56.924Z,99.50
2022-08-17T00:33:12.249Z,99.50
2022-08-17T00:35:20.667Z,99.50
2022-08-17T00:37:51.155Z,99.40
2022-08-17T00:40:24.751Z,99.40
2022-08-17T00:42:55.714Z,99.10
2022-08-17T00:45:26.216Z,99.00
2022-08-17T00:47:56.691Z,99.20
2022-08-17T00:50:27.136Z,99.40
2022-08-17T00:53:00.253Z,99.40
2022-08-17T00:55:31.040Z,99.20
2022-08-17T00:58:05.733Z,99.10
2022-08-17T01:03:32.429Z,99.00
2022-08-17T01:06:06.513Z,98.90
2022-08-17T01:08:38.667Z,99.00
2022-08-17T01:13:57.080Z,99.00
2022-08-17T01:22:27.499Z,98.40
2022-08-17T01:25:03.799Z,98.20
2022-08-17T01:27:34.640Z,97.70
2022-08-17T01:32:56.410Z,98.10
2022-08-17T01:38:12.906Z,98.10
2022-08-17T01:40:57.664Z,97.80
2022-08-17T01:43:37.257Z,97.60
2022-08-17T01:46:08.250Z,97.60
2022-08-17T01:48:40.867Z,97.70
2022-08-17T01:51:11.439Z,97.90
2022-08-17T01:53:47.569Z,97.80
2022-08-17T01:56:22.413Z,97.50
2022-08-17T01:58:54.932Z,97.10
2022-08-17T02:07:02.009Z,97.00
2022-08-17T02:09:33.930Z,96.80
2022-08-17T02:14:55.447Z,96.80
2022-08-17T02:17:25.993Z,96.90
2022-08-17T02:19:56.383Z,96.70
2022-08-17T02:22:28.243Z,96.50
2022-08-17T02:25:02.097Z,96.40
2022-08-17T02:30:50.199Z,95.50
2022-08-17T02:35:56.478Z,95.50
2022-08-17T02:38:27.248Z,95.00
2022-08-17T02:40:57.665Z,95.50
2022-08-17T02:43:29.852Z,95.30
2022-08-17T02:46:00.407Z,95.00
2022-08-17T02:51:17.363Z,94.60
2022-08-17T02:56:35.589Z,93.80
2022-08-17T02:59:06.238Z,94.10
2022-08-17T03:01:36.718Z,93.30
2022-08-17T03:06:53.123Z,92.90
2022-08-17T03:20:34.881Z,93.80
2022-08-17T03:23:05.646Z,93.90
2022-08-17T03:25:40.474Z,93.50
2022-08-17T03:31:01.473Z,93.20
2022-08-17T03:33:32.845Z,93.30
2022-08-17T03:36:03.401Z,92.60
2022-08-17T03:38:38.901Z,92.80
2022-08-17T03:41:10.465Z,91.70
2022-08-17T03:43:40.865Z,91.60
2022-08-17T03:46:35.047Z,91.70
2022-08-17T03:49:26.126Z,91.70
2022-08-17T03:52:16.173Z,91.70
2022-08-17T03:55:05.711Z,91.80
2022-08-17T03:57:35.760Z,91.90
2022-08-17T04:00:07.405Z,91.10
2022-08-17T04:02:39.056Z,91.10
2022-08-17T04:07:55.875Z,91.80
2022-08-17T04:10:26.532Z,90.40
2022-08-17T04:12:58.380Z,90.90
2022-08-17T04:15:29.473Z,90.90
2022-08-17T04:18:00.590Z,90.20
2022-08-17T04:20:31.483Z,90.50
2022-08-17T04:23:12.065Z,91.00
2022-08-17T04:25:46.681Z,91.50
2022-08-17T04:31:04.421Z,90.90
2022-08-17T04:33:34.984Z,90.60
2022-08-17T04:36:07.613Z,91.00
2022-08-17T04:38:40.866Z,91.10
2022-08-17T04:41:31.149Z,91.30
2022-08-17T04:44:02.477Z,92.00
2022-08-17T04:46:35.145Z,91.70
2022-08-17T04:51:59.992Z,91.60
2022-08-17T04:54:35.003Z,91.20
2022-08-17T04:57:06.742Z,91.70
2022-08-17T04:59:37.306Z,92.00
2022-08-17T05:02:08.259Z,92.10
2022-08-17T05:04:38.868Z,91.90
2022-08-17T05:07:09.538Z,91.60
2022-08-17T05:09:40.263Z,91.20
2022-08-17T05:12:10.746Z,91.20
2022-08-17T05:14:42.571Z,91.60
2022-08-17T05:17:13.124Z,91.10
2022-08-17T05:19:45.735Z,91.40
2022-08-17T05:22:19.148Z,90.80
2022-08-17T08:50:36.921Z,87.40
2022-08-17T12:43:01.176Z,94.00
2022-08-17T12:45:35.693Z,94.10
2022-08-17T12:48:10.460Z,94.40
2022-08-17T12:50:46.447Z,94.60
2022-08-17T12:56:15.918Z,94.80
2022-08-17T12:58:56.688Z,94.80
2022-08-17T13:01:27.417Z,94.90
2022-08-17T13:04:01.700Z,95.00
2022-08-17T13:06:35.676Z,95.10
2022-08-17T13:09:20.843Z,95.00
2022-08-17T13:11:54.385Z,94.90
2022-08-17T13:14:25.275Z,95.10
2022-08-17T13:17:01.908Z,95.00
2022-08-17T13:19:40.449Z,95.40
2022-08-17T13:22:14.865Z,95.20
2022-08-17T13:24:55.306Z,95.40
2022-08-17T13:27:28.573Z,95.40
2022-08-17T13:30:02.695Z,95.70
2022-08-17T13:32:44.997Z,95.70
2022-08-17T13:35:41.103Z,96.10
2022-08-17T13:38:17.057Z,96.20
2022-08-17T13:40:52.341Z,96.30
2022-08-17T13:43:41.371Z,96.10
2022-08-17T13:46:22.782Z,96.30
2022-08-17T13:49:08.346Z,96.40
2022-08-17T13:51:46.712Z,96.20
2022-08-17T13:54:43.225Z,96.30
2022-08-17T13:57:25.961Z,96.30
2022-08-17T14:00:12.075Z,96.30
2022-08-17T14:02:42.512Z,96.40
2022-08-17T14:05:12.941Z,96.30
2022-08-17T14:07:43.575Z,96.10
2022-08-17T14:10:19.440Z,96.20
2022-08-17T14:15:56.210Z,96.30
2022-08-17T14:18:55.224Z,96.10
2022-08-17T14:21:18.167Z,96.20
2022-08-17T14:26:35.251Z,96.20
2022-08-17T14:29:05.615Z,96.30
2022-08-17T14:34:31.392Z,96.40
2022-08-17T14:37:02.063Z,96.30
2022-08-17T14:39:32.632Z,96.20
2022-08-17T14:42:04.388Z,96.40
2022-08-17T14:44:34.888Z,96.50
2022-08-17T14:49:52.320Z,96.70
2022-08-17T14:52:24.879Z,96.70
2022-08-17T14:54:56.344Z,96.40
2022-08-17T14:57:34.118Z,96.20
2022-08-17T15:00:07.355Z,96.10
2022-08-17T15:02:51.078Z,96.30
2022-08-17T15:05:21.892Z,96.50
2022-08-17T15:07:52.617Z,96.20
2022-08-17T15:10:25.827Z,96.10
2022-08-17T15:15:42.714Z,96.10
2022-08-17T15:20:58.912Z,96.20
2022-08-17T15:23:30.030Z,96.20
2022-08-17T15:26:00.500Z,96.50
2022-08-17T15:28:31.032Z,96.60
2022-08-17T15:31:01.522Z,96.70
2022-08-17T15:33:32.616Z,96.50
2022-08-17T15:38:55.366Z,96.00
2022-08-17T15:41:26.198Z,96.10
2022-08-17T15:43:57.439Z,95.90
2022-08-17T15:46:29.660Z,96.30
2022-08-17T15:49:01.014Z,96.80
2022-08-17T15:54:22.889Z,96.70
2022-08-17T15:59:39.380Z,97.00
2022-08-17T16:03:14.405Z,97.00
2022-08-17T16:05:11.675Z,96.90
2022-08-17T16:07:44.336Z,97.10
2022-08-17T16:10:18.829Z,97.00
2022-08-17T16:12:51.971Z,97.20
2022-08-17T16:15:23.304Z,97.30
2022-08-17T16:17:53.981Z,97.50
2022-08-17T16:20:25.457Z,97.40
2022-08-17T16:22:56.679Z,97.50
2022-08-17T16:25:50.317Z,97.60
2022-08-17T16:28:35.778Z,97.70
2022-08-17T16:31:09.378Z,97.60
2022-08-17T16:36:27.738Z,97.70
2022-08-17T16:38:59.344Z,97.50
2022-08-17T16:41:44.340Z,97.50
2022-08-17T16:44:24.041Z,97.70
2022-08-17T16:46:54.926Z,97.90
2022-08-17T16:49:36.786Z,98.10
2022-08-17T17:06:24.341Z,97.80
2022-08-17T17:09:08.605Z,97.80
2022-08-17T17:14:44.075Z,98.20
2022-08-17T17:17:39.075Z,98.10
2022-08-17T17:20:17.560Z,97.80
2022-08-17T17:23:11.270Z,97.80
2022-08-17T17:26:10.398Z,98.10
2022-08-17T17:29:03.664Z,98.30
2022-08-17T17:31:41.993Z,98.50
2022-08-17T17:34:18.268Z,98.40
2022-08-17T17:42:42.250Z,98.10
2022-08-17T17:45:23.880Z,98.20
2022-08-17T17:47:55.172Z,97.80
2022-08-17T17:50:37.275Z,97.70
2022-08-17T17:59:51.077Z,97.60
2022-08-17T18:02:52.878Z,97.40
2022-08-17T18:05:51.174Z,97.30
2022-08-17T18:08:55.298Z,97.60
2022-08-17T18:11:52.831Z,97.60
2022-08-17T18:15:05.541Z,97.50
2022-08-17T18:17:38.492Z,97.40
2022-08-17T18:20:09.170Z,97.60
2022-08-17T18:22:40.074Z,97.40
2022-08-17T18:25:46.903Z,97.40
2022-08-17T18:28:33.150Z,97.60
2022-08-17T18:31:11.119Z,97.60
2022-08-17T18:33:44.409Z,97.70
2022-08-17T18:36:15.709Z,97.60
2022-08-17T18:38:52.676Z,97.80
2022-08-17T18:41:32.402Z,97.70
2022-08-17T18:44:05.105Z,97.80
2022-08-17T18:46:38.865Z,97.50
2022-08-17T18:49:27.634Z,97.60
2022-08-17T18:55:32.381Z,97.60
2022-08-17T18:58:26.693Z,97.70
2022-08-17T19:00:57.168Z,97.50
2022-08-17T19:03:28.960Z,97.40
2022-08-17T19:12:16.160Z,98.00
2022-08-17T19:14:47.206Z,98.10
2022-08-17T19:17:29.274Z,97.90
2022-08-17T19:20:22.471Z,98.10
2022-08-17T19:23:07.637Z,98.10
2022-08-17T19:25:43.094Z,98.20
2022-08-17T19:28:33.232Z,98.20
2022-08-17T19:31:06.030Z,98.20
2022-08-17T19:33:36.924Z,98.10
2022-08-17T19:36:24.384Z,97.90
2022-08-17T19:39:13.610Z,97.90
2022-08-17T19:42:05.125Z,97.90
2022-08-17T19:45:05.223Z,98.10
2022-08-17T19:47:57.771Z,98.00
2022-08-17T19:50:56.191Z,97.90
2022-08-17T19:54:05.513Z,98.00
2022-08-17T20:00:10.116Z,97.80
2022-08-17T20:02:52.226Z,97.80
2022-08-17T20:05:30.605Z,97.90
2022-08-17T20:08:14.848Z,98.20
2022-08-17T20:10:54.483Z,98.10
2022-08-17T20:13:35.621Z,98.10
2022-08-17T20:23:59.738Z,99.80
2022-08-17T20:26:55.291Z,99.90
2022-08-17T20:32:29.418Z,99.90
2022-08-17T20:38:14.269Z,99.30
2022-08-17T20:41:19.637Z,98.90
2022-08-17T20:44:06.140Z,98.70
2022-08-17T20:46:53.538Z,98.60
2022-08-17T20:49:40.958Z,98.40
2022-08-17T20:52:16.082Z,98.30
2022-08-17T20:54:56.334Z,98.50
2022-08-17T20:57:48.648Z,98.50
2022-08-17T21:00:43.060Z,98.30
2022-08-17T21:03:50.981Z,98.50
2022-08-17T21:06:24.352Z,98.60
2022-08-17T21:09:12.633Z,98.40
2022-08-17T21:11:56.833Z,98.30
2022-08-17T21:15:00.085Z,98.30
2022-08-17T21:17:41.495Z,98.20
2022-08-17T21:23:58.439Z,98.30
2022-08-17T21:29:52.841Z,98.30
2022-08-17T21:32:32.094Z,98.20
2022-08-17T21:35:30.745Z,98.20
2022-08-17T21:38:07.122Z,98.50
2022-08-17T21:40:37.625Z,98.50
2022-08-17T21:43:28.941Z,98.40
2022-08-17T21:46:07.318Z,98.60
2022-08-17T21:48:48.710Z,98.60
2022-08-17T21:51:29.439Z,98.40
2022-08-17T21:56:51.760Z,98.20
2022-08-17T21:59:31.714Z,98.20
2022-08-17T22:02:08.161Z,98.40
2022-08-17T22:04:44.046Z,98.50
2022-08-17T22:07:16.434Z,98.30
2022-08-17T22:09:50.901Z,98.20
2022-08-17T22:12:24.436Z,98.30
2022-08-17T22:17:51.431Z,98.30
2022-08-17T22:23:31.955Z,98.40
2022-08-17T22:26:12.527Z,98.40
2022-08-17T22:28:55.340Z,98.40
2022-08-17T22:31:30.227Z,98.20
2022-08-17T22:34:17.869Z,98.40
2022-08-17T22:36:48.284Z,98.50
2022-08-17T22:39:42.515Z,98.30
2022-08-17T22:42:17.886Z,98.60
2022-08-17T22:44:51.925Z,98.80
2022-08-17T22:47:34.370Z,98.70
2022-08-17T22:50:14.672Z,98.70
2022-08-17T22:59:15.820Z,98.80
2022-08-17T23:02:07.060Z,98.80
2022-08-17T23:04:41.356Z,98.80
2022-08-17T23:07:11.792Z,98.80
2022-08-17T23:09:42.133Z,98.80
2022-08-17T23:12:17.906Z,98.70
2022-08-17T23:14:49.173Z,98.80
2022-08-17T23:17:20.205Z,98.70
2022-08-17T23:19:50.582Z,98.60
2022-08-17T23:22:21.012Z,98.60
2022-08-17T23:24:52.768Z,98.70
2022-08-17T23:27:25.190Z,98.60
2022-08-17T23:29:57.163Z,98.70
2022-08-17T23:32:28.120Z,98.70
2022-08-17T23:35:01.604Z,98.50
2022-08-17T23:37:31.958Z,98.50
2022-08-17T23:40:02.459Z,98.50
2022-08-17T23:42:32.899Z,98.80
2022-08-17T23:45:05.351Z,98.80
2022-08-17T23:47:35.664Z,98.80
2022-08-17T23:52:55.603Z,98.50
2022-08-17T23:55:25.971Z,98.40
2022-08-17T23:57:56.301Z,98.40
